sensor_id;sensor_type;location;lat;lon;timestamp;temperature;humidity
43015;DHT22;28637;50.554;7.032;2023-06-01T00:00:16;12.70;99.90
43015;DHT22;28637;50.554;7.032;2023-06-01T00:05:17;12.70;99.90
43015;DHT22;28637;50.554;7.032;2023-06-01T00:10:17;12.70;99.90
43015;DHT22;28637;50.554;7.032;2023-06-01T00:15:18;12.60;99.90
43015;DHT22;28637;50.554;7.032;2023-06-01T00:20:19;12.60;99.90
43015;DHT22;28637;50.554;7.032;2023-06-01T00:25:19;12.60;99.90
43015;DHT22;28637;50.554;7.032;2023-06-01T00:30:20;12.50;99.90
43015;DHT22;28637;50.554;7.032;2023-06-01T00:35:21;12.40;99.90
43015;DHT22;28637;50.554;7.032;2023-06-01T00:40:21;12.10;99.90
43015;DHT22;28637;50.554;7.032;2023-06-01T00:45:22;12.00;99.90
43015;DHT22;28637;50.554;7.032;2023-06-01T00:50:22;12.00;99.90
43015;DHT22;28637;50.554;7.032;2023-06-01T00:55:23;11.90;99.90
43015;DHT22;28637;50.554;7.032;2023-06-01T01:00:26;11.90;99.90
43015;DHT22;28637;50.554;7.032;2023-06-01T01:05:28;11.80;99.90
43015;DHT22;28637;50.554;7.032;2023-06-01T01:10:39;11.80;99.90
43015;DHT22;28637;50.554;7.032;2023-06-01T01:20:57;11.60;99.90
43015;DHT22;28637;50.554;7.032;2023-06-01T01:26:20;11.60;99.90
43015;DHT22;28637;50.554;7.032;2023-06-01T01:31:24;11.40;99.90
43015;DHT22;28637;50.554;7.032;2023-06-01T01:36:25;11.40;99.90
43015;DHT22;28637;50.554;7.032;2023-06-01T01:41:26;11.40;99.90
43015;DHT22;28637;50.554;7.032;2023-06-01T01:56:59;11.20;99.90
43015;DHT22;28637;50.554;7.032;2023-06-01T02:02:01;11.20;99.90
43015;DHT22;28637;50.554;7.032;2023-06-01T02:07:03;11.20;99.90
43015;DHT22;28637;50.554;7.032;2023-06-01T02:12:03;11.20;99.90
43015;DHT22;28637;50.554;7.032;2023-06-01T02:17:04;10.90;99.90
43015;DHT22;28637;50.554;7.032;2023-06-01T02:22:05;10.90;99.90
43015;DHT22;28637;50.554;7.032;2023-06-01T02:27:06;10.80;99.90
43015;DHT22;28637;50.554;7.032;2023-06-01T02:32:08;10.80;99.90
43015;DHT22;28637;50.554;7.032;2023-06-01T02:37:08;10.70;99.90
43015;DHT22;28637;50.554;7.032;2023-06-01T02:42:09;10.60;99.90
43015;DHT22;28637;50.554;7.032;2023-06-01T02:47:10;10.60;99.90
43015;DHT22;28637;50.554;7.032;2023-06-01T02:52:10;10.40;99.90
43015;DHT22;28637;50.554;7.032;2023-06-01T02:57:11;10.20;99.90
43015;DHT22;28637;50.554;7.032;2023-06-01T03:02:12;10.20;99.90
43015;DHT22;28637;50.554;7.032;2023-06-01T03:07:12;10.20;99.90
43015;DHT22;28637;50.554;7.032;2023-06-01T03:12:13;10.20;99.90
43015;DHT22;28637;50.554;7.032;2023-06-01T03:17:14;10.20;99.90
43015;DHT22;28637;50.554;7.032;2023-06-01T03:22:14;10.30;99.90
43015;DHT22;28637;50.554;7.032;2023-06-01T03:27:18;10.30;99.90
43015;DHT22;28637;50.554;7.032;2023-06-01T03:32:19;10.30;99.90
43015;DHT22;28637;50.554;7.032;2023-06-01T03:37:20;10.30;99.90
43015;DHT22;28637;50.554;7.032;2023-06-01T03:42:21;10.30;99.90
43015;DHT22;28637;50.554;7.032;2023-06-01T03:47:21;10.40;99.90
43015;DHT22;28637;50.554;7.032;2023-06-01T03:52:22;10.40;99.90
43015;DHT22;28637;50.554;7.032;2023-06-01T03:57:23;10.50;99.90
43015;DHT22;28637;50.554;7.032;2023-06-01T04:02:23;10.60;99.90
43015;DHT22;28637;50.554;7.032;2023-06-01T04:07:24;10.70;99.90
43015;DHT22;28637;50.554;7.032;2023-06-01T04:12:25;10.80;99.90
43015;DHT22;28637;50.554;7.032;2023-06-01T04:17:26;10.90;99.90
43015;DHT22;28637;50.554;7.032;2023-06-01T04:22:27;11.10;99.90
43015;DHT22;28637;50.554;7.032;2023-06-01T04:27:27;11.30;99.90
43015;DHT22;28637;50.554;7.032;2023-06-01T04:32:28;11.60;99.90
43015;DHT22;28637;50.554;7.032;2023-06-01T04:37:29;11.70;99.90
43015;DHT22;28637;50.554;7.032;2023-06-01T04:42:30;11.90;99.90
43015;DHT22;28637;50.554;7.032;2023-06-01T04:47:31;12.00;99.90
43015;DHT22;28637;50.554;7.032;2023-06-01T04:52:32;12.10;99.90
43015;DHT22;28637;50.554;7.032;2023-06-01T04:57:34;12.30;99.90
43015;DHT22;28637;50.554;7.032;2023-06-01T05:02:36;12.40;99.90
43015;DHT22;28637;50.554;7.032;2023-06-01T05:07:38;12.60;99.90
43015;DHT22;28637;50.554;7.032;2023-06-01T05:12:39;12.80;99.90
43015;DHT22;28637;50.554;7.032;2023-06-01T05:17:40;13.10;99.90
43015;DHT22;28637;50.554;7.032;2023-06-01T05:22:41;13.40;99.90
43015;DHT22;28637;50.554;7.032;2023-06-01T05:27:42;13.60;99.90
43015;DHT22;28637;50.554;7.032;2023-06-01T05:32:42;13.90;99.90
43015;DHT22;28637;50.554;7.032;2023-06-01T05:37:43;14.20;99.90
43015;DHT22;28637;50.554;7.032;2023-06-01T05:42:43;14.50;99.90
43015;DHT22;28637;50.554;7.032;2023-06-01T05:47:44;14.60;99.90
43015;DHT22;28637;50.554;7.032;2023-06-01T05:52:45;14.70;99.90
43015;DHT22;28637;50.554;7.032;2023-06-01T05:57:45;15.00;99.90
43015;DHT22;28637;50.554;7.032;2023-06-01T06:02:46;15.20;99.90
43015;DHT22;28637;50.554;7.032;2023-06-01T06:07:46;15.30;99.90
43015;DHT22;28637;50.554;7.032;2023-06-01T06:12:47;15.50;99.90
43015;DHT22;28637;50.554;7.032;2023-06-01T06:17:48;15.60;99.90
43015;DHT22;28637;50.554;7.032;2023-06-01T06:22:52;15.70;99.90
43015;DHT22;28637;50.554;7.032;2023-06-01T06:27:52;15.70;99.90
43015;DHT22;28637;50.554;7.032;2023-06-01T06:32:53;15.70;99.90
43015;DHT22;28637;50.554;7.032;2023-06-01T06:37:54;15.80;99.90
43015;DHT22;28637;50.554;7.032;2023-06-01T06:42:55;16.10;99.90
43015;DHT22;28637;50.554;7.032;2023-06-01T06:47:55;16.20;99.90
43015;DHT22;28637;50.554;7.032;2023-06-01T06:52:56;16.30;99.90
43015;DHT22;28637;50.554;7.032;2023-06-01T06:57:56;16.50;99.90
43015;DHT22;28637;50.554;7.032;2023-06-01T07:02:57;16.70;99.90
43015;DHT22;28637;50.554;7.032;2023-06-01T07:07:59;17.00;99.90
43015;DHT22;28637;50.554;7.032;2023-06-01T07:13:00;17.10;99.90
43015;DHT22;28637;50.554;7.032;2023-06-01T07:18:01;17.20;99.90
43015;DHT22;28637;50.554;7.032;2023-06-01T07:23:02;17.30;99.90
43015;DHT22;28637;50.554;7.032;2023-06-01T07:28:02;17.30;99.90
43015;DHT22;28637;50.554;7.032;2023-06-01T07:33:07;17.40;99.90
43015;DHT22;28637;50.554;7.032;2023-06-01T07:38:08;17.40;99.90
43015;DHT22;28637;50.554;7.032;2023-06-01T07:43:09;17.30;99.90
43015;DHT22;28637;50.554;7.032;2023-06-01T07:48:10;17.40;99.90
43015;DHT22;28637;50.554;7.032;2023-06-01T07:53:11;17.50;99.90
43015;DHT22;28637;50.554;7.032;2023-06-01T07:58:12;17.50;99.90
43015;DHT22;28637;50.554;7.032;2023-06-01T08:03:13;17.50;99.90
43015;DHT22;28637;50.554;7.032;2023-06-01T08:08:14;17.70;99.90
43015;DHT22;28637;50.554;7.032;2023-06-01T08:13:16;17.80;99.90
43015;DHT22;28637;50.554;7.032;2023-06-01T08:18:16;17.80;99.90
43015;DHT22;28637;50.554;7.032;2023-06-01T08:23:17;18.00;99.90
43015;DHT22;28637;50.554;7.032;2023-06-01T08:28:18;18.20;99.90
43015;DHT22;28637;50.554;7.032;2023-06-01T08:33:19;18.40;99.90
43015;DHT22;28637;50.554;7.032;2023-06-01T08:38:19;18.60;99.90
43015;DHT22;28637;50.554;7.032;2023-06-01T08:43:22;18.70;99.90
43015;DHT22;28637;50.554;7.032;2023-06-01T08:48:28;18.70;99.90
43015;DHT22;28637;50.554;7.032;2023-06-01T08:53:31;18.50;99.90
43015;DHT22;28637;50.554;7.032;2023-06-01T08:58:33;18.60;99.90
43015;DHT22;28637;50.554;7.032;2023-06-01T09:03:35;18.80;99.90
43015;DHT22;28637;50.554;7.032;2023-06-01T09:08:36;18.70;99.90
43015;DHT22;28637;50.554;7.032;2023-06-01T09:13:38;18.70;99.90
43015;DHT22;28637;50.554;7.032;2023-06-01T09:18:54;18.50;99.90
43015;DHT22;28637;50.554;7.032;2023-06-01T09:23:55;18.60;99.90
43015;DHT22;28637;50.554;7.032;2023-06-01T09:29:00;18.70;99.90
43015;DHT22;28637;50.554;7.032;2023-06-01T09:34:01;18.70;99.90
43015;DHT22;28637;50.554;7.032;2023-06-01T09:39:07;18.60;99.90
43015;DHT22;28637;50.554;7.032;2023-06-01T09:44:08;18.60;99.90
43015;DHT22;28637;50.554;7.032;2023-06-01T09:49:08;18.60;99.90
43015;DHT22;28637;50.554;7.032;2023-06-01T09:54:09;18.90;99.90
43015;DHT22;28637;50.554;7.032;2023-06-01T09:59:10;19.10;99.90
43015;DHT22;28637;50.554;7.032;2023-06-01T10:04:11;19.20;99.90
43015;DHT22;28637;50.554;7.032;2023-06-01T10:09:14;19.30;99.90
43015;DHT22;28637;50.554;7.032;2023-06-01T10:14:18;19.00;99.90
43015;DHT22;28637;50.554;7.032;2023-06-01T10:19:21;19.10;99.90
43015;DHT22;28637;50.554;7.032;2023-06-01T10:24:22;19.40;99.90
43015;DHT22;28637;50.554;7.032;2023-06-01T10:29:23;19.60;99.90
43015;DHT22;28637;50.554;7.032;2023-06-01T10:34:41;19.70;99.90
43015;DHT22;28637;50.554;7.032;2023-06-01T10:39:43;19.80;99.90
43015;DHT22;28637;50.554;7.032;2023-06-01T10:44:49;20.00;99.90
43015;DHT22;28637;50.554;7.032;2023-06-01T10:54:53;20.10;99.90
43015;DHT22;28637;50.554;7.032;2023-06-01T11:21:18;20.80;99.90
43015;DHT22;28637;50.554;7.032;2023-06-01T11:26:23;20.70;99.90
43015;DHT22;28637;50.554;7.032;2023-06-01T11:31:27;20.90;99.90
43015;DHT22;28637;50.554;7.032;2023-06-01T11:36:38;21.10;99.90
43015;DHT22;28637;50.554;7.032;2023-06-01T11:41:39;21.10;99.90
43015;DHT22;28637;50.554;7.032;2023-06-01T11:46:54;21.00;99.90
43015;DHT22;28637;50.554;7.032;2023-06-01T11:51:56;21.10;99.90
43015;DHT22;28637;50.554;7.032;2023-06-01T11:56:57;21.40;99.90
43015;DHT22;28637;50.554;7.032;2023-06-01T12:01:57;21.30;99.90
43015;DHT22;28637;50.554;7.032;2023-06-01T12:07:05;21.40;99.90
43015;DHT22;28637;50.554;7.032;2023-06-01T12:12:08;21.40;99.50
43015;DHT22;28637;50.554;7.032;2023-06-01T12:17:09;21.60;99.60
43015;DHT22;28637;50.554;7.032;2023-06-01T12:22:12;21.70;99.70
43015;DHT22;28637;50.554;7.032;2023-06-01T12:27:18;22.00;98.60
43015;DHT22;28637;50.554;7.032;2023-06-01T12:32:22;22.40;97.70
43015;DHT22;28637;50.554;7.032;2023-06-01T12:37:23;22.50;97.20
43015;DHT22;28637;50.554;7.032;2023-06-01T12:42:40;22.50;95.90
43015;DHT22;28637;50.554;7.032;2023-06-01T12:47:41;22.60;96.00
43015;DHT22;28637;50.554;7.032;2023-06-01T12:52:42;22.50;93.90
43015;DHT22;28637;50.554;7.032;2023-06-01T12:57:43;22.70;95.30
43015;DHT22;28637;50.554;7.032;2023-06-01T13:02:43;23.10;93.20
43015;DHT22;28637;50.554;7.032;2023-06-01T13:07:48;23.30;90.80
43015;DHT22;28637;50.554;7.032;2023-06-01T13:12:49;23.20;89.40
43015;DHT22;28637;50.554;7.032;2023-06-01T13:17:49;23.20;91.20
43015;DHT22;28637;50.554;7.032;2023-06-01T13:22:50;23.50;90.00
43015;DHT22;28637;50.554;7.032;2023-06-01T13:27:51;23.50;88.90
43015;DHT22;28637;50.554;7.032;2023-06-01T13:32:52;23.60;89.60
43015;DHT22;28637;50.554;7.032;2023-06-01T13:37:53;23.60;87.70
43015;DHT22;28637;50.554;7.032;2023-06-01T13:42:54;23.60;88.20
43015;DHT22;28637;50.554;7.032;2023-06-01T13:47:54;23.90;87.90
43015;DHT22;28637;50.554;7.032;2023-06-01T13:52:55;24.00;84.20
43015;DHT22;28637;50.554;7.032;2023-06-01T13:57:56;23.80;83.60
43015;DHT22;28637;50.554;7.032;2023-06-01T14:02:56;23.90;84.50
43015;DHT22;28637;50.554;7.032;2023-06-01T14:07:57;23.90;82.80
43015;DHT22;28637;50.554;7.032;2023-06-01T14:12:58;23.90;80.30
43015;DHT22;28637;50.554;7.032;2023-06-01T14:17:58;23.80;82.20
43015;DHT22;28637;50.554;7.032;2023-06-01T14:22:59;24.10;82.10
43015;DHT22;28637;50.554;7.032;2023-06-01T14:28:00;24.40;80.20
43015;DHT22;28637;50.554;7.032;2023-06-01T14:33:01;24.10;79.90
43015;DHT22;28637;50.554;7.032;2023-06-01T14:38:01;24.20;80.40
43015;DHT22;28637;50.554;7.032;2023-06-01T14:43:02;24.40;78.90
43015;DHT22;28637;50.554;7.032;2023-06-01T14:48:03;24.50;79.40
43015;DHT22;28637;50.554;7.032;2023-06-01T14:53:03;24.50;80.60
43015;DHT22;28637;50.554;7.032;2023-06-01T14:58:04;24.50;80.60
43015;DHT22;28637;50.554;7.032;2023-06-01T15:03:05;24.60;81.60
43015;DHT22;28637;50.554;7.032;2023-06-01T15:08:07;24.60;81.30
43015;DHT22;28637;50.554;7.032;2023-06-01T15:13:08;24.80;82.40
43015;DHT22;28637;50.554;7.032;2023-06-01T15:18:08;25.00;81.60
43015;DHT22;28637;50.554;7.032;2023-06-01T15:23:09;25.20;79.10
43015;DHT22;28637;50.554;7.032;2023-06-01T15:28:10;25.40;79.30
43015;DHT22;28637;50.554;7.032;2023-06-01T15:33:11;25.20;77.50
43015;DHT22;28637;50.554;7.032;2023-06-01T15:38:14;25.10;77.80
43015;DHT22;28637;50.554;7.032;2023-06-01T15:43:14;25.00;78.80
43015;DHT22;28637;50.554;7.032;2023-06-01T15:48:15;25.10;75.70
43015;DHT22;28637;50.554;7.032;2023-06-01T15:53:36;25.30;75.90
43015;DHT22;28637;50.554;7.032;2023-06-01T15:58:37;25.10;76.30
43015;DHT22;28637;50.554;7.032;2023-06-01T16:03:37;25.10;74.20
43015;DHT22;28637;50.554;7.032;2023-06-01T16:08:38;24.70;74.20
43015;DHT22;28637;50.554;7.032;2023-06-01T16:13:38;24.60;76.30
43015;DHT22;28637;50.554;7.032;2023-06-01T16:18:39;24.70;76.00
43015;DHT22;28637;50.554;7.032;2023-06-01T16:23:40;24.80;75.60
43015;DHT22;28637;50.554;7.032;2023-06-01T16:28:40;24.60;74.50
43015;DHT22;28637;50.554;7.032;2023-06-01T16:33:41;24.40;75.10
43015;DHT22;28637;50.554;7.032;2023-06-01T16:38:42;24.20;76.90
43015;DHT22;28637;50.554;7.032;2023-06-01T16:43:42;24.40;78.00
43015;DHT22;28637;50.554;7.032;2023-06-01T16:48:44;24.40;77.70
43015;DHT22;28637;50.554;7.032;2023-06-01T16:53:45;24.10;77.40
43015;DHT22;28637;50.554;7.032;2023-06-01T16:58:46;23.50;78.30
43015;DHT22;28637;50.554;7.032;2023-06-01T17:03:46;23.10;79.70
43015;DHT22;28637;50.554;7.032;2023-06-01T17:08:49;22.90;80.20
43015;DHT22;28637;50.554;7.032;2023-06-01T17:13:49;22.40;80.30
43015;DHT22;28637;50.554;7.032;2023-06-01T17:18:50;22.00;82.20
43015;DHT22;28637;50.554;7.032;2023-06-01T17:23:51;21.80;83.80
43015;DHT22;28637;50.554;7.032;2023-06-01T17:28:52;21.70;86.00
43015;DHT22;28637;50.554;7.032;2023-06-01T17:33:52;22.00;84.90
43015;DHT22;28637;50.554;7.032;2023-06-01T17:38:53;22.20;84.30
43015;DHT22;28637;50.554;7.032;2023-06-01T17:43:53;22.00;85.90
43015;DHT22;28637;50.554;7.032;2023-06-01T17:48:54;22.00;85.70
43015;DHT22;28637;50.554;7.032;2023-06-01T17:53:55;22.00;85.60
43015;DHT22;28637;50.554;7.032;2023-06-01T17:58:55;22.10;85.30
43015;DHT22;28637;50.554;7.032;2023-06-01T18:03:56;21.90;85.80
43015;DHT22;28637;50.554;7.032;2023-06-01T18:08:57;21.70;86.30
43015;DHT22;28637;50.554;7.032;2023-06-01T18:13:57;21.40;89.10
43015;DHT22;28637;50.554;7.032;2023-06-01T18:18:59;21.20;89.10
43015;DHT22;28637;50.554;7.032;2023-06-01T18:23:59;20.90;90.40
43015;DHT22;28637;50.554;7.032;2023-06-01T18:29:00;20.80;90.00
43015;DHT22;28637;50.554;7.032;2023-06-01T18:34:01;20.70;89.60
43015;DHT22;28637;50.554;7.032;2023-06-01T18:39:01;20.60;90.20
43015;DHT22;28637;50.554;7.032;2023-06-01T18:44:02;20.50;90.50
43015;DHT22;28637;50.554;7.032;2023-06-01T18:49:04;20.20;90.50
43015;DHT22;28637;50.554;7.032;2023-06-01T18:54:05;19.90;90.60
43015;DHT22;28637;50.554;7.032;2023-06-01T18:59:08;19.60;91.10
43015;DHT22;28637;50.554;7.032;2023-06-01T19:04:09;19.50;91.70
43015;DHT22;28637;50.554;7.032;2023-06-01T19:09:15;19.30;91.70
43015;DHT22;28637;50.554;7.032;2023-06-01T19:14:16;19.10;92.10
43015;DHT22;28637;50.554;7.032;2023-06-01T19:19:23;18.80;92.00
43015;DHT22;28637;50.554;7.032;2023-06-01T19:24:24;18.60;92.20
43015;DHT22;28637;50.554;7.032;2023-06-01T19:29:26;18.40;92.30
43015;DHT22;28637;50.554;7.032;2023-06-01T19:34:26;18.20;92.60
43015;DHT22;28637;50.554;7.032;2023-06-01T19:44:32;17.90;93.50
43015;DHT22;28637;50.554;7.032;2023-06-01T19:49:39;17.70;93.90
43015;DHT22;28637;50.554;7.032;2023-06-01T19:54:41;17.60;94.30
43015;DHT22;28637;50.554;7.032;2023-06-01T19:59:42;17.50;94.70
43015;DHT22;28637;50.554;7.032;2023-06-01T20:04:42;17.40;95.20
43015;DHT22;28637;50.554;7.032;2023-06-01T20:09:43;17.30;95.70
43015;DHT22;28637;50.554;7.032;2023-06-01T20:14:46;17.10;96.10
43015;DHT22;28637;50.554;7.032;2023-06-01T20:19:49;17.10;96.70
43015;DHT22;28637;50.554;7.032;2023-06-01T20:24:49;16.90;97.20
43015;DHT22;28637;50.554;7.032;2023-06-01T20:29:50;16.80;97.90
43015;DHT22;28637;50.554;7.032;2023-06-01T20:34:51;16.60;99.30
43015;DHT22;28637;50.554;7.032;2023-06-01T20:39:51;16.50;99.90
43015;DHT22;28637;50.554;7.032;2023-06-01T20:44:52;16.40;99.90
43015;DHT22;28637;50.554;7.032;2023-06-01T20:49:53;16.30;99.90
43015;DHT22;28637;50.554;7.032;2023-06-01T20:54:53;16.10;99.90
43015;DHT22;28637;50.554;7.032;2023-06-01T20:59:54;16.00;99.90
43015;DHT22;28637;50.554;7.032;2023-06-01T21:04:55;15.90;99.90
43015;DHT22;28637;50.554;7.032;2023-06-01T21:09:55;15.80;99.90
43015;DHT22;28637;50.554;7.032;2023-06-01T21:14:56;15.60;99.90
43015;DHT22;28637;50.554;7.032;2023-06-01T21:19:57;15.50;99.90
43015;DHT22;28637;50.554;7.032;2023-06-01T21:24:57;15.40;99.90
43015;DHT22;28637;50.554;7.032;2023-06-01T21:29:58;15.30;99.90
43015;DHT22;28637;50.554;7.032;2023-06-01T21:34:59;15.20;99.90
43015;DHT22;28637;50.554;7.032;2023-06-01T21:40:00;15.10;99.90
43015;DHT22;28637;50.554;7.032;2023-06-01T21:45:00;15.00;99.90
43015;DHT22;28637;50.554;7.032;2023-06-01T21:50:01;15.00;99.90
43015;DHT22;28637;50.554;7.032;2023-06-01T21:55:02;14.90;99.90
43015;DHT22;28637;50.554;7.032;2023-06-01T22:00:04;14.90;99.90
43015;DHT22;28637;50.554;7.032;2023-06-01T22:05:07;14.80;99.90
43015;DHT22;28637;50.554;7.032;2023-06-01T22:10:08;14.70;99.90
43015;DHT22;28637;50.554;7.032;2023-06-01T22:15:09;14.80;99.90
43015;DHT22;28637;50.554;7.032;2023-06-01T22:20:11;14.80;99.90
43015;DHT22;28637;50.554;7.032;2023-06-01T22:25:11;14.70;99.90
43015;DHT22;28637;50.554;7.032;2023-06-01T22:30:12;14.70;99.90
43015;DHT22;28637;50.554;7.032;2023-06-01T22:35:13;14.70;99.90
43015;DHT22;28637;50.554;7.032;2023-06-01T22:40:13;14.70;99.90
43015;DHT22;28637;50.554;7.032;2023-06-01T22:45:14;14.70;99.90
43015;DHT22;28637;50.554;7.032;2023-06-01T22:50:15;14.60;99.90
43015;DHT22;28637;50.554;7.032;2023-06-01T22:55:18;14.60;99.90
43015;DHT22;28637;50.554;7.032;2023-06-01T23:00:19;14.60;99.90
43015;DHT22;28637;50.554;7.032;2023-06-01T23:05:20;14.50;99.90
43015;DHT22;28637;50.554;7.032;2023-06-01T23:10:21;14.50;99.90
43015;DHT22;28637;50.554;7.032;2023-06-01T23:15:22;14.50;99.90
43015;DHT22;28637;50.554;7.032;2023-06-01T23:20:24;14.50;99.90
43015;DHT22;28637;50.554;7.032;2023-06-01T23:25:24;14.40;99.90
43015;DHT22;28637;50.554;7.032;2023-06-01T23:30:25;14.40;99.90
43015;DHT22;28637;50.554;7.032;2023-06-01T23:35:27;14.30;99.90
43015;DHT22;28637;50.554;7.032;2023-06-01T23:40:27;14.30;99.90
43015;DHT22;28637;50.554;7.032;2023-06-01T23:45:28;14.10;99.90
43015;DHT22;28637;50.554;7.032;2023-06-01T23:50:28;14.10;99.90
43015;DHT22;28637;50.554;7.032;2023-06-01T23:55:29;14.00;99.90
